createdAt,value
2018-02-09T00:00:16.554Z,78.93
2018-02-09T00:02:42.527Z,71.57
2018-02-09T00:05:09.231Z,79.47
2018-02-09T00:07:35.708Z,75.83
2018-02-09T00:10:02.436Z,90.87
2018-02-09T00:12:29.161Z,74.70
2018-02-09T00:14:55.118Z,71.00
2018-02-09T00:17:21.107Z,83.97
2018-02-09T00:19:47.064Z,80.87
2018-02-09T00:22:13.133Z,83.07
2018-02-09T00:24:39.148Z,91.23
2018-02-09T00:27:05.122Z,83.97
2018-02-09T00:29:31.836Z,89.70
2018-02-09T00:31:57.808Z,79.27
2018-02-09T00:34:24.859Z,85.27
2018-02-09T00:36:50.804Z,75.10
2018-02-09T00:39:16.769Z,78.77
2018-02-09T00:41:42.752Z,76.33
2018-02-09T00:44:08.724Z,69.60
2018-02-09T00:46:35.440Z,87.07
2018-02-09T00:49:01.434Z,76.47
2018-02-09T00:51:27.402Z,74.23
2018-02-09T00:53:53.378Z,69.70
2018-02-09T00:56:20.102Z,69.33
2018-02-09T00:58:46.100Z,76.37
2018-02-09T01:01:12.125Z,70.00
2018-02-09T01:03:38.103Z,76.33
2018-02-09T01:06:04.072Z,72.43
2018-02-09T01:08:30.785Z,65.57
2018-02-09T01:10:56.773Z,71.57
2018-02-09T01:13:23.049Z,73.90
2018-02-09T01:15:49.022Z,80.40
2018-02-09T01:18:15.033Z,73.30
2018-02-09T01:20:41.147Z,78.93
2018-02-09T01:23:07.131Z,73.10
2018-02-09T01:25:33.115Z,85.77
2018-02-09T01:27:59.084Z,76.60
2018-02-09T01:30:25.111Z,74.10
2018-02-09T01:32:51.108Z,80.40
2018-02-09T01:35:17.072Z,67.33
2018-02-09T01:37:43.097Z,75.87
2018-02-09T01:40:09.074Z,72.47
2018-02-09T01:42:35.036Z,77.37
2018-02-09T01:45:01.752Z,77.00
2018-02-09T01:47:27.748Z,79.87
2018-02-09T01:50:06.227Z,79.37
2018-02-09T01:52:32.951Z,71.87
2018-02-09T01:54:58.912Z,72.57
2018-02-09T01:57:24.884Z,81.50
2018-02-09T01:59:50.845Z,76.10
2018-02-09T02:02:16.821Z,88.53
2018-02-09T02:04:42.863Z,81.30
2018-02-09T02:07:09.585Z,74.60
2018-02-09T02:09:35.544Z,77.30
2018-02-09T02:12:01.504Z,71.07
2018-02-09T02:14:28.212Z,60.90
2018-02-09T02:16:54.190Z,90.83
2018-02-09T02:19:20.938Z,76.73
2018-02-09T02:21:47.651Z,74.00
2018-02-09T02:24:13.676Z,70.70
2018-02-09T02:26:39.666Z,76.33
2018-02-09T02:29:06.380Z,86.07
2018-02-09T02:31:32.600Z,69.83
2018-02-09T02:33:58.588Z,66.03
2018-02-09T02:36:25.307Z,79.03
2018-02-09T02:38:51.304Z,80.97
2018-02-09T02:41:17.280Z,75.37
2018-02-09T02:43:43.353Z,76.90
2018-02-09T02:46:10.086Z,76.00
2018-02-09T02:48:36.065Z,82.43
2018-02-09T02:51:02.045Z,74.87
2018-02-09T02:53:28.048Z,78.93
2018-02-09T02:55:54.022Z,81.17
2018-02-09T02:58:20.014Z,76.40
2018-02-09T03:00:46.037Z,79.33
2018-02-09T03:03:12.040Z,69.33
2018-02-09T03:05:38.008Z,74.17
2018-02-09T03:08:03.996Z,78.10
2018-02-09T03:10:29.972Z,81.43
2018-02-09T03:12:56.692Z,70.30
2018-02-09T03:15:22.704Z,70.20
2018-02-09T03:17:48.684Z,72.87
2018-02-09T03:20:15.420Z,77.77
2018-02-09T03:22:41.489Z,83.37
2018-02-09T03:25:07.458Z,71.60
2018-02-09T03:27:33.459Z,63.87
2018-02-09T03:30:00.161Z,74.27
2018-02-09T03:32:26.160Z,77.63
2018-02-09T03:34:52.134Z,69.80
2018-02-09T03:37:18.116Z,64.37
2018-02-09T03:39:44.869Z,72.00
2018-02-09T03:42:10.954Z,70.20
2018-02-09T03:44:36.941Z,71.03
2018-02-09T03:47:03.644Z,71.13
2018-02-09T03:49:29.616Z,70.43
2018-02-09T03:51:56.326Z,69.03
2018-02-09T03:54:22.300Z,69.53
2018-02-09T03:56:49.009Z,85.53
2018-02-09T03:59:15.036Z,74.37
2018-02-09T04:01:41.436Z,73.90
2018-02-09T04:04:07.454Z,70.13
2018-02-09T04:06:33.765Z,71.37
2018-02-09T04:08:59.739Z,72.97
2018-02-09T04:11:25.700Z,73.77
2018-02-09T04:13:52.416Z,68.70
2018-02-09T04:16:18.379Z,72.43
2018-02-09T04:18:45.123Z,73.37
2018-02-09T04:21:11.888Z,83.93
2018-02-09T04:23:37.875Z,80.37
2018-02-09T04:26:03.852Z,85.87
2018-02-09T04:28:30.560Z,80.47
2018-02-09T04:30:56.520Z,82.93
2018-02-09T04:33:22.492Z,79.00
2018-02-09T04:35:48.444Z,82.73
2018-02-09T04:38:14.454Z,78.73
2018-02-09T04:40:41.469Z,82.27
2018-02-09T04:43:07.460Z,81.43
2018-02-09T04:45:33.431Z,74.30
2018-02-09T04:47:59.400Z,81.23
2018-02-09T04:50:25.364Z,73.13
2018-02-09T04:52:51.348Z,81.73
2018-02-09T04:55:17.344Z,80.00
2018-02-09T04:57:43.346Z,77.07
2018-02-09T05:00:10.083Z,74.17
2018-02-09T05:02:36.788Z,75.73
2018-02-09T05:05:02.800Z,83.40
2018-02-09T05:07:29.556Z,90.23
2018-02-09T05:09:56.276Z,82.50
2018-02-09T05:12:22.232Z,71.63
2018-02-09T05:14:48.949Z,74.30
2018-02-09T05:17:14.963Z,76.23
2018-02-09T05:19:40.984Z,58.83
2018-02-09T05:22:06.959Z,64.27
2018-02-09T05:24:32.929Z,68.80
2018-02-09T05:26:59.635Z,73.33
2018-02-09T05:29:25.605Z,79.73
2018-02-09T05:31:51.559Z,70.67
2018-02-09T05:34:18.276Z,80.20
2018-02-09T05:36:44.291Z,77.57
2018-02-09T05:39:10.269Z,71.80
2018-02-09T05:41:36.974Z,81.67
2018-02-09T05:44:02.936Z,78.93
2018-02-09T05:46:28.929Z,78.70
2018-02-09T05:48:54.892Z,81.03
2018-02-09T05:51:20.858Z,80.80
2018-02-09T05:53:46.836Z,81.47
2018-02-09T05:56:12.827Z,79.00
2018-02-09T05:58:39.540Z,75.40
2018-02-09T06:01:05.515Z,77.40
2018-02-09T06:03:31.490Z,78.43
2018-02-09T06:05:57.468Z,85.47
2018-02-09T06:08:23.476Z,80.30
2018-02-09T06:10:49.409Z,81.53
2018-02-09T06:13:15.425Z,75.40
2018-02-09T06:15:41.501Z,90.20
2018-02-09T06:18:07.495Z,71.87
2018-02-09T06:20:33.484Z,75.37
2018-02-09T06:22:59.504Z,82.83
2018-02-09T06:25:25.486Z,83.60
2018-02-09T06:27:52.192Z,82.63
2018-02-09T06:30:18.242Z,79.77
2018-02-09T06:32:44.253Z,85.27
2018-02-09T06:35:10.492Z,77.80
2018-02-09T06:37:36.452Z,82.77
2018-02-09T06:40:02.446Z,90.97
2018-02-09T06:42:28.421Z,83.47
2018-02-09T06:44:54.391Z,78.87
2018-02-09T06:47:21.104Z,87.13
2018-02-09T06:49:47.117Z,84.90
2018-02-09T06:52:13.878Z,80.87
2018-02-09T06:54:40.632Z,77.77
2018-02-09T06:57:07.347Z,82.50
2018-02-09T06:59:33.359Z,84.17
2018-02-09T07:01:59.354Z,86.67
2018-02-09T07:04:26.185Z,83.60
2018-02-09T07:06:52.964Z,79.07
2018-02-09T07:09:19.700Z,79.07
2018-02-09T07:11:46.404Z,81.07
2018-02-09T07:14:12.398Z,82.27
2018-02-09T07:16:39.105Z,76.47
2018-02-09T07:19:05.088Z,86.77
2018-02-09T07:21:31.818Z,80.53
2018-02-09T07:23:58.049Z,76.30
2018-02-09T07:26:24.348Z,80.70
2018-02-09T07:28:50.372Z,76.57
2018-02-09T07:31:16.521Z,78.37
2018-02-09T07:33:42.520Z,77.47
2018-02-09T07:36:08.518Z,79.70
2018-02-09T07:38:34.546Z,78.47
2018-02-09T07:41:00.537Z,80.07
2018-02-09T07:43:27.386Z,81.83
2018-02-09T07:45:54.161Z,72.07
2018-02-09T07:48:20.357Z,83.93
2018-02-09T07:50:47.076Z,78.53
2018-02-09T07:53:13.040Z,84.73
2018-02-09T07:55:39.007Z,82.63
2018-02-09T07:58:05.736Z,77.93
2018-02-09T08:00:31.725Z,78.03
2018-02-09T08:02:57.732Z,88.10
2018-02-09T08:05:24.510Z,82.27
2018-02-09T08:07:50.527Z,78.20
2018-02-09T08:10:17.248Z,76.23
2018-02-09T08:12:43.220Z,84.40
2018-02-09T08:15:09.221Z,80.50
2018-02-09T08:17:35.264Z,74.47
2018-02-09T08:20:01.274Z,80.03
2018-02-09T08:22:27.280Z,80.50
2018-02-09T08:24:53.276Z,74.03
2018-02-09T08:27:19.233Z,78.13
2018-02-09T08:29:45.211Z,85.83
2018-02-09T08:32:11.192Z,80.80
2018-02-09T08:34:37.928Z,84.00
2018-02-09T08:37:03.908Z,77.73
2018-02-09T08:39:29.936Z,78.17
2018-02-09T08:41:55.914Z,73.87
2018-02-09T08:44:21.902Z,70.63
2018-02-09T08:46:47.860Z,81.27
2018-02-09T08:49:13.866Z,96.33
2018-02-09T08:51:40.592Z,79.47
2018-02-09T08:54:06.630Z,88.13
2018-02-09T08:56:32.613Z,82.07
2018-02-09T08:58:58.685Z,87.80
2018-02-09T09:01:24.671Z,90.77
2018-02-09T09:03:50.656Z,86.37
2018-02-09T09:06:16.621Z,88.73
2018-02-09T09:08:42.600Z,92.90
2018-02-09T09:11:08.567Z,87.20
2018-02-09T09:13:34.540Z,93.53
2018-02-09T09:16:00.512Z,80.37
2018-02-09T09:18:26.480Z,82.70
2018-02-09T09:20:52.495Z,96.67
2018-02-09T09:23:18.565Z,79.33
2018-02-09T09:25:44.572Z,82.47
2018-02-09T09:28:10.544Z,74.70
2018-02-09T09:30:37.258Z,86.70
2018-02-09T09:33:03.232Z,79.40
2018-02-09T09:35:29.976Z,76.70
2018-02-09T09:37:56.704Z,95.80
2018-02-09T09:40:22.720Z,81.43
2018-02-09T09:42:48.724Z,87.67
2018-02-09T09:45:14.742Z,79.07
2018-02-09T09:47:41.486Z,88.67
2018-02-09T09:50:08.200Z,78.73
2018-02-09T09:52:34.160Z,80.57
2018-02-09T09:55:00.132Z,88.83
2018-02-09T09:57:26.108Z,91.07
2018-02-09T09:59:52.120Z,82.77
2018-02-09T10:02:30.595Z,86.77
2018-02-09T10:04:56.564Z,83.30
2018-02-09T10:07:22.582Z,75.40
2018-02-09T10:09:49.376Z,86.73
2018-02-09T10:12:15.357Z,82.23
2018-02-09T10:14:41.333Z,74.70
2018-02-09T10:17:07.304Z,83.23
2018-02-09T10:19:33.284Z,81.47
2018-02-09T10:22:00.012Z,81.53
2018-02-09T10:24:26.021Z,78.57
2018-02-09T10:26:52.041Z,84.30
2018-02-09T10:29:18.135Z,84.47
2018-02-09T10:31:44.888Z,90.40
2018-02-09T10:34:10.867Z,78.60
2018-02-09T10:36:36.840Z,82.90
2018-02-09T10:39:02.855Z,71.87
2018-02-09T10:41:28.846Z,81.57
2018-02-09T10:43:55.600Z,87.93
2018-02-09T10:46:22.475Z,86.37
2018-02-09T10:48:48.546Z,85.53
2018-02-09T10:51:14.533Z,87.50
2018-02-09T10:53:41.274Z,78.57
2018-02-09T10:56:08.005Z,82.17
2018-02-09T10:58:33.969Z,79.03
2018-02-09T11:01:00.695Z,78.33
2018-02-09T11:03:26.703Z,79.27
2018-02-09T11:05:52.715Z,80.60
2018-02-09T11:08:18.717Z,78.03
2018-02-09T11:10:46.644Z,83.57
2018-02-09T11:13:15.596Z,76.47
2018-02-09T11:15:41.589Z,90.27
2018-02-09T11:18:07.558Z,73.17
2018-02-09T11:20:33.545Z,77.20
2018-02-09T11:22:59.522Z,77.27
2018-02-09T11:25:25.552Z,85.67
2018-02-09T11:27:51.567Z,75.70
2018-02-09T11:30:17.711Z,76.87
2018-02-09T11:32:43.672Z,80.33
2018-02-09T11:35:09.649Z,75.63
2018-02-09T11:37:35.649Z,69.63
2018-02-09T11:40:01.620Z,72.40
2018-02-09T11:42:27.672Z,71.03
2018-02-09T11:44:53.808Z,75.00
2018-02-09T11:47:19.808Z,80.83
2018-02-09T11:49:46.625Z,90.07
2018-02-09T11:52:12.588Z,76.63
2018-02-09T11:54:38.603Z,69.27
2018-02-09T11:57:04.582Z,89.87
2018-02-09T11:59:31.317Z,73.03
2018-02-09T12:01:57.308Z,65.40
2018-02-09T12:04:23.309Z,77.83
2018-02-09T12:06:50.068Z,71.53
2018-02-09T12:09:16.054Z,77.23
2018-02-09T12:11:42.846Z,78.00
2018-02-09T12:14:08.824Z,94.37
2018-02-09T12:16:34.820Z,75.87
2018-02-09T12:19:01.587Z,86.77
2018-02-09T12:21:27.609Z,79.60
2018-02-09T12:23:53.598Z,72.90
2018-02-09T12:26:19.676Z,71.90
2018-02-09T12:28:46.410Z,65.63
2018-02-09T12:31:12.400Z,66.57
2018-02-09T12:33:38.387Z,63.80
2018-02-09T12:36:04.381Z,72.03
2018-02-09T12:38:30.381Z,65.43
2018-02-09T12:40:57.228Z,65.90
2018-02-09T12:43:23.197Z,68.90
2018-02-09T12:45:49.216Z,65.97
2018-02-09T12:48:15.183Z,56.73
2018-02-09T12:50:41.196Z,62.53
2018-02-09T12:53:07.167Z,64.67
2018-02-09T12:55:33.203Z,55.93
2018-02-09T12:57:59.230Z,60.10
2018-02-09T13:00:25.220Z,55.97
2018-02-09T13:02:52.132Z,63.30
2018-02-09T13:05:18.190Z,59.43
2018-02-09T13:07:44.236Z,61.40
2018-02-09T13:10:10.248Z,59.37
2018-02-09T13:56:28.544Z,65.40
2018-02-09T13:58:54.639Z,72.40
2018-02-09T14:01:20.692Z,56.60
2018-02-09T14:03:46.707Z,61.70
2018-02-09T14:06:12.695Z,58.97
2018-02-09T14:08:38.679Z,53.93
2018-02-09T14:11:04.685Z,55.37
2018-02-09T14:13:31.403Z,58.00
2018-02-09T14:15:57.388Z,53.67
2018-02-09T14:18:23.459Z,55.03
2018-02-09T14:20:49.545Z,59.07
2018-02-09T14:23:15.573Z,54.23
2018-02-09T14:25:42.336Z,52.50
2018-02-09T14:28:09.085Z,56.40
2018-02-09T14:30:35.804Z,54.80
2018-02-09T14:33:01.820Z,51.70
2018-02-09T14:35:27.827Z,47.60
2018-02-09T14:37:53.892Z,51.57
2018-02-09T14:40:26.821Z,51.10
2018-02-09T14:42:52.857Z,50.93
2018-02-09T14:45:19.013Z,45.47
2018-02-09T14:47:44.976Z,46.17
2018-02-09T14:50:10.957Z,57.13
2018-02-09T14:52:36.952Z,63.47
2018-02-09T14:55:02.956Z,65.90
2018-02-09T14:57:29.677Z,52.07
2018-02-09T14:59:55.646Z,58.80
2018-02-09T15:02:22.471Z,49.10
2018-02-09T15:04:48.523Z,54.10
2018-02-09T15:07:14.517Z,54.40
2018-02-09T15:09:40.528Z,50.40
2018-02-09T15:12:06.518Z,53.80
2018-02-09T15:14:32.508Z,55.97
2018-02-09T15:16:58.516Z,47.30
2018-02-09T15:19:25.243Z,62.77
2018-02-09T15:21:51.332Z,46.97
2018-02-09T15:24:17.405Z,55.83
2018-02-09T15:26:43.396Z,47.13
2018-02-09T15:29:09.384Z,52.83
2018-02-09T15:31:35.365Z,52.63
2018-02-09T15:34:02.084Z,46.53
2018-02-09T15:36:28.815Z,54.90
2018-02-09T15:38:54.898Z,50.03
2018-02-09T15:41:21.769Z,53.60
2018-02-09T15:43:47.777Z,56.87
2018-02-09T15:46:13.750Z,44.23
2018-02-09T15:48:39.720Z,51.07
2018-02-09T15:51:05.700Z,52.53
2018-02-09T15:53:32.424Z,60.17
2018-02-09T15:55:58.425Z,50.80
2018-02-09T15:58:24.435Z,53.87
2018-02-09T16:00:50.534Z,54.67
2018-02-09T16:03:16.547Z,49.00
2018-02-09T16:05:42.536Z,66.50
2018-02-09T16:08:08.528Z,65.33
2018-02-09T16:10:34.505Z,61.87
2018-02-09T16:13:00.520Z,66.47
2018-02-09T16:15:27.242Z,63.23
2018-02-09T16:17:53.273Z,66.80
2018-02-09T16:20:19.384Z,51.70
2018-02-09T16:22:45.368Z,66.97
2018-02-09T16:25:11.412Z,51.87
2018-02-09T16:27:37.402Z,54.13
2018-02-09T16:30:03.389Z,59.10
2018-02-09T16:32:29.421Z,60.10
2018-02-09T16:34:55.429Z,53.17
2018-02-09T16:37:21.568Z,57.60
2018-02-09T16:39:47.618Z,64.57
2018-02-09T16:42:13.606Z,60.67
2018-02-09T16:44:39.590Z,59.47
2018-02-09T16:47:05.568Z,53.07
2018-02-09T16:49:32.308Z,65.40
2018-02-09T16:51:59.117Z,51.70
2018-02-09T16:54:25.365Z,60.93
2018-02-09T16:56:51.643Z,62.70
2018-02-09T16:59:18.083Z,52.90
2018-02-09T17:01:44.105Z,60.40
2018-02-09T17:04:10.108Z,52.10
2018-02-09T17:06:36.866Z,62.40
2018-02-09T17:09:02.907Z,60.07
2018-02-09T17:11:28.884Z,50.37
2018-02-09T17:13:54.860Z,51.63
2018-02-09T17:16:20.884Z,60.70
2018-02-09T17:18:46.888Z,57.43
2018-02-09T17:21:12.854Z,53.07
2018-02-09T17:23:38.848Z,52.37
2018-02-09T17:26:04.913Z,62.70
2018-02-09T17:28:30.937Z,55.97
2018-02-09T17:30:56.936Z,55.93
2018-02-09T17:33:23.646Z,65.67
2018-02-09T17:35:49.680Z,57.37
2018-02-09T17:38:15.680Z,52.93
2018-02-09T17:40:41.676Z,50.77
2018-02-09T17:43:07.686Z,64.90
2018-02-09T17:45:33.751Z,49.17
2018-02-09T17:48:00.178Z,56.87
2018-02-09T17:50:29.957Z,58.37
2018-02-09T17:52:55.940Z,53.13
2018-02-09T17:55:21.912Z,70.73
2018-02-09T17:57:48.657Z,56.27
2018-02-09T18:00:15.380Z,73.87
2018-02-09T18:02:41.377Z,53.67
2018-02-09T18:05:07.406Z,53.60
2018-02-09T18:07:33.443Z,53.83
2018-02-09T18:09:59.420Z,52.67
2018-02-09T18:12:25.534Z,55.37
2018-02-09T18:14:51.509Z,56.33
2018-02-09T18:17:17.518Z,62.43
2018-02-09T18:19:43.496Z,54.10
2018-02-09T18:22:09.573Z,60.50
2018-02-09T18:24:35.656Z,50.93
2018-02-09T18:27:01.680Z,65.63
2018-02-09T18:29:27.696Z,60.47
2018-02-09T18:31:53.675Z,75.72
2018-02-09T18:34:20.412Z,54.73
2018-02-09T18:36:46.480Z,48.63
2018-02-09T18:39:12.560Z,57.00
2018-02-09T18:41:38.728Z,60.53
2018-02-09T18:44:05.643Z,60.77
2018-02-09T18:46:32.624Z,54.17
2018-02-09T18:48:58.612Z,51.80
2018-02-09T18:51:25.321Z,64.70
2018-02-09T18:53:51.309Z,55.53
2018-02-09T18:56:17.336Z,59.67
2018-02-09T18:58:43.315Z,47.73
2018-02-09T19:01:09.293Z,49.70
2018-02-09T19:03:36.031Z,56.63
2018-02-09T19:06:08.960Z,60.20
2018-02-09T19:08:35.709Z,52.07
2018-02-09T19:11:02.586Z,56.97
2018-02-09T19:13:28.568Z,58.53
2018-02-09T19:15:54.692Z,55.40
2018-02-09T19:18:20.668Z,51.63
2018-02-09T19:20:47.384Z,56.10
2018-02-09T19:23:13.370Z,51.13
2018-02-09T19:25:40.193Z,52.53
2018-02-09T19:28:06.969Z,47.17
2018-02-09T19:30:33.782Z,53.70
2018-02-09T19:32:59.898Z,58.83
2018-02-09T19:35:25.911Z,47.47
2018-02-09T19:37:52.624Z,48.97
2018-02-09T19:40:18.648Z,56.23
2018-02-09T19:42:44.708Z,51.67
2018-02-09T19:45:10.697Z,49.07
2018-02-09T19:47:37.161Z,48.07
2018-02-09T19:50:03.190Z,51.40
2018-02-09T19:52:29.708Z,45.57
2018-02-09T19:54:56.043Z,52.90
2018-02-09T19:57:22.795Z,51.40
2018-02-09T19:59:49.548Z,53.67
2018-02-09T20:02:16.324Z,47.13
2018-02-09T20:04:42.324Z,47.87
2018-02-09T20:07:08.414Z,51.70
2018-02-09T20:09:34.455Z,48.50
2018-02-09T20:12:00.478Z,46.00
2018-02-09T20:14:26.741Z,40.70
2018-02-09T20:16:52.799Z,45.07
2018-02-09T20:19:19.348Z,41.20
2018-02-09T20:21:45.501Z,46.20
2018-02-09T20:24:11.505Z,47.57
2018-02-09T20:26:37.534Z,44.73
2018-02-09T20:29:03.546Z,45.07
2018-02-09T20:31:29.570Z,45.83
2018-02-09T20:33:55.641Z,46.07
2018-02-09T20:36:21.655Z,56.47
2018-02-09T20:38:47.685Z,47.33
2018-02-09T20:41:13.783Z,43.37
2018-02-09T20:43:39.777Z,50.93
2018-02-09T20:46:05.933Z,46.67
2018-02-09T20:48:32.447Z,50.90
2018-02-09T20:50:58.620Z,45.57
2018-02-09T20:53:24.750Z,48.93
2018-02-09T20:55:50.831Z,37.80
2018-02-09T20:58:16.841Z,49.07
2018-02-09T21:00:42.966Z,53.77
2018-02-09T21:03:09.030Z,47.43
2018-02-09T21:05:35.045Z,51.40
2018-02-09T21:08:01.088Z,45.63
2018-02-09T21:10:27.061Z,58.97
2018-02-09T21:12:53.032Z,45.40
2018-02-09T21:15:19.008Z,51.30
2018-02-09T21:17:45.790Z,62.70
2018-02-09T21:20:12.525Z,48.03
2018-02-09T21:22:38.630Z,51.23
2018-02-09T21:25:04.684Z,46.60
2018-02-09T21:27:30.756Z,50.53
2018-02-09T21:29:57.516Z,48.17
2018-02-09T21:32:23.527Z,56.30
2018-02-09T21:34:50.317Z,60.00
2018-02-09T21:37:16.334Z,53.80
2018-02-09T21:39:43.089Z,47.57
2018-02-09T21:42:09.815Z,52.57
2018-02-09T21:44:35.832Z,60.40
2018-02-09T21:47:01.942Z,46.67
2018-02-09T21:49:27.926Z,55.43
2018-02-09T21:51:54.662Z,58.83
2018-02-09T21:54:20.654Z,59.63
2018-02-09T21:56:46.659Z,60.67
2018-02-09T21:59:12.674Z,58.20
2018-02-09T22:01:38.761Z,62.53
2018-02-09T22:04:05.728Z,55.50
2018-02-09T22:06:32.652Z,49.60
2018-02-09T22:08:59.396Z,48.77
2018-02-09T22:11:25.372Z,54.63
2018-02-09T22:13:51.380Z,53.57
2018-02-09T22:16:17.362Z,57.20
2018-02-09T22:18:43.488Z,56.80
2018-02-09T22:21:09.507Z,60.70
2018-02-09T22:23:35.532Z,61.90
2018-02-09T22:26:01.662Z,57.13
2018-02-09T22:28:28.877Z,56.33
2018-02-09T22:30:54.876Z,59.90
2018-02-09T22:33:21.773Z,43.43
2018-02-09T22:35:47.734Z,60.33
2018-02-09T22:38:13.734Z,58.63
2018-02-09T22:40:39.741Z,66.33
2018-02-09T22:43:06.484Z,66.80
2018-02-09T22:45:33.456Z,58.10
2018-02-09T22:48:00.369Z,66.23
2018-02-09T22:50:26.352Z,48.03
2018-02-09T22:52:53.060Z,48.10
2018-02-09T22:55:19.041Z,63.03
2018-02-09T22:57:45.028Z,55.17
2018-02-09T23:00:11.329Z,50.17
2018-02-09T23:02:38.133Z,49.60
2018-02-09T23:05:04.195Z,55.43
2018-02-09T23:07:30.212Z,56.13
2018-02-09T23:09:56.288Z,56.03
2018-02-09T23:12:22.260Z,50.67
2018-02-09T23:14:48.388Z,48.20
2018-02-09T23:17:14.372Z,52.43
2018-02-09T23:19:41.955Z,54.50
2018-02-09T23:22:08.714Z,60.47
2018-02-09T23:24:35.530Z,55.13
2018-02-09T23:27:01.544Z,55.23
2018-02-09T23:29:27.512Z,61.00
2018-02-09T23:31:54.023Z,52.90
2018-02-09T23:34:20.058Z,48.70
2018-02-09T23:36:45.991Z,57.97
2018-02-09T23:39:11.992Z,55.00
2018-02-09T23:41:38.824Z,56.20
2018-02-09T23:44:04.864Z,65.10
2018-02-09T23:46:31.196Z,53.77
2018-02-09T23:48:57.930Z,45.57
2018-02-09T23:51:23.944Z,47.10
2018-02-09T23:53:49.945Z,61.37
2018-02-09T23:56:16.610Z,52.63
2018-02-09T23:58:42.633Z,51.37
